Time;durP1;ratioP1;P1;durP2;ratioP2;P2;SDS_P1;SDS_P2;PMS_P1;PMS_P2;Temp;Humidity;BMP_temperature;BMP_pressure;BME280_temperature;BME280_humidity;BME280_pressure;Samples;Min_cycle;Max_cycle;Signal;HPM_P1;HPM_P2
2024/01/30 00:00:08;;;;;;;17.83;12.50;;;;;;;17.12;36.55;94649.28;4952503;28;20043;-94
2024/01/30 00:02:33;;;;;;;16.90;12.73;;;;;;;17.06;36.38;94651.19;4955208;28;20050;-90
2024/01/30 00:04:59;;;;;;;19.60;12.93;;;;;;;17.08;36.58;94651.50;4956882;28;20034;-93
2024/01/30 00:07:24;;;;;;;17.00;11.25;;;;;;;17.14;36.60;94652.31;4959686;28;20110;-92
2024/01/30 00:09:51;;;;;;;17.25;11.80;;;;;;;17.08;36.60;94651.50;4973664;28;20038;-94
2024/01/30 00:12:17;;;;;;;17.13;11.77;;;;;;;17.04;36.81;94653.66;4971422;28;20478;-93
2024/01/30 00:14:45;;;;;;;17.85;12.13;;;;;;;17.08;36.78;94656.94;4956171;28;20130;-94
2024/01/30 00:17:11;;;;;;;17.45;12.38;;;;;;;17.05;36.65;94655.91;4952643;28;20046;-95
2024/01/30 00:19:36;;;;;;;16.73;12.10;;;;;;;17.08;36.54;94651.50;4959083;28;20113;-92
2024/01/30 00:22:02;;;;;;;16.98;11.98;;;;;;;17.15;36.49;94656.56;4959504;28;20043;-92
2024/01/30 00:24:28;;;;;;;15.32;10.75;;;;;;;17.04;36.66;94650.91;4972800;28;20126;-93
2024/01/30 00:26:54;;;;;;;13.98;10.90;;;;;;;17.07;36.99;94649.97;4945875;28;20131;-94
2024/01/30 00:29:20;;;;;;;16.23;11.60;;;;;;;17.05;36.27;94646.97;4961142;28;20050;-94
2024/01/30 00:31:45;;;;;;;16.13;11.50;;;;;;;17.07;36.77;94656.19;4960735;28;20125;-93
2024/01/30 00:34:11;;;;;;;16.42;12.30;;;;;;;17.06;36.97;94657.44;4971941;28;20134;-93
2024/01/30 00:36:37;;;;;;;16.45;11.70;;;;;;;17.05;36.97;94653.19;4963311;28;20134;-94
2024/01/30 00:39:06;;;;;;;17.08;11.73;;;;;;;17.09;36.65;94653.00;4941430;28;20046;-93
2024/01/30 00:41:32;;;;;;;17.35;10.57;;;;;;;17.11;36.79;94651.28;4949492;28;20067;-93
2024/01/30 00:43:58;;;;;;;17.35;10.30;;;;;;;17.11;36.79;94648.53;4956821;28;20042;-95
2024/01/30 00:46:23;;;;;;;14.35;11.23;;;;;;;17.06;36.85;94649.22;4961445;28;20046;-94
2024/01/30 00:48:50;;;;;;;16.45;11.95;;;;;;;17.02;37.09;94645.94;4977354;28;20038;-95
2024/01/30 00:51:15;;;;;;;15.15;10.45;;;;;;;17.09;36.73;94647.53;4965997;28;20042;-94
2024/01/30 00:53:43;;;;;;;15.57;11.50;;;;;;;17.08;37.02;94641.31;4955419;28;20061;-94
2024/01/30 00:56:08;;;;;;;15.73;10.48;;;;;;;17.07;36.71;94644.53;4943863;28;20496;-94
2024/01/30 00:58:35;;;;;;;16.38;11.82;;;;;;;17.08;36.59;94635.09;4964627;28;20063;-94
2024/01/30 01:01:00;;;;;;;14.13;10.73;;;;;;;17.06;36.34;94638.31;4974709;28;20046;-95
2024/01/30 01:03:27;;;;;;;14.40;10.85;;;;;;;17.04;36.84;94638.00;4973848;28;20262;-94
2024/01/30 01:05:53;;;;;;;14.15;10.48;;;;;;;17.04;37.30;94631.81;4952289;28;20039;-93
2024/01/30 01:08:18;;;;;;;15.77;10.68;;;;;;;17.00;36.77;94628.50;4953397;28;20053;-94
2024/01/30 01:10:44;;;;;;;14.40;10.40;;;;;;;17.04;36.88;94637.25;4953914;28;20050;-94
2024/01/30 01:13:09;;;;;;;12.05;9.55;;;;;;;17.04;36.84;94634.53;4959479;28;20066;-94
2024/01/30 01:15:35;;;;;;;14.98;10.15;;;;;;;16.99;36.76;94632.44;4956625;28;20513;-95
2024/01/30 01:18:00;;;;;;;12.68;9.73;;;;;;;17.04;36.63;94629.06;4958035;28;20057;-94
2024/01/30 01:20:27;;;;;;;13.27;9.95;;;;;;;17.03;36.72;94628.31;4954726;28;20042;-94
2024/01/30 01:22:53;;;;;;;15.50;9.93;;;;;;;17.00;37.00;94629.25;4957387;28;20054;-94
2024/01/30 01:25:18;;;;;;;14.07;9.90;;;;;;;17.04;36.93;94626.34;4956345;28;20043;-93
2024/01/30 01:27:51;;;;;;;15.48;10.52;;;;;;;16.98;36.59;94623.50;4973206;28;20153;-94
2024/01/30 01:30:21;;;;;;;12.63;9.48;;;;;;;17.00;36.80;94620.31;4959452;28;20085;-95
2024/01/30 01:32:54;;;;;;;14.80;9.75;;;;;;;16.98;36.83;94618.03;4984527;28;20631;-94
2024/01/30 01:35:24;;;;;;;12.93;9.32;;;;;;;16.99;37.13;94621.53;4954841;28;20478;-94
2024/01/30 01:37:56;;;;;;;12.87;9.40;;;;;;;17.12;36.57;94613.78;4940673;28;20050;-94
2024/01/30 01:40:24;;;;;;;14.75;9.93;;;;;;;17.09;36.59;94622.94;4973758;28;20272;-93
2024/01/30 01:42:51;;;;;;;13.80;10.48;;;;;;;17.04;36.81;94613.44;4973282;28;20512;-91
2024/01/30 01:45:17;;;;;;;13.43;10.13;;;;;;;16.98;36.83;94620.78;4971720;28;20050;-94
2024/01/30 01:47:42;;;;;;;12.52;9.13;;;;;;;17.00;36.96;94612.09;4940844;28;20212;-94
2024/01/30 01:50:08;;;;;;;13.38;9.55;;;;;;;17.06;36.60;94613.72;4956840;28;20416;-95
2024/01/30 01:52:34;;;;;;;12.75;9.30;;;;;;;17.05;36.75;94609.47;4958560;28;20098;-94
2024/01/30 01:54:59;;;;;;;11.50;9.25;;;;;;;17.05;36.75;94604.00;4971054;28;20045;-93
2024/01/30 01:57:25;;;;;;;12.60;10.18;;;;;;;17.03;36.55;94608.44;4974220;28;20096;-94
2024/01/30 01:59:50;;;;;;;12.55;8.38;;;;;;;17.06;36.45;94602.03;4973083;28;20043;-92
2024/01/30 02:02:17;;;;;;;11.18;8.45;;;;;;;17.03;36.67;94609.19;4953994;28;20375;-93
2024/01/30 02:04:42;;;;;;;12.77;9.70;;;;;;;17.08;36.90;94611.25;4956814;28;20857;-93
2024/01/30 02:07:09;;;;;;;12.43;9.02;;;;;;;17.02;36.85;94606.94;4938917;28;20121;-92
2024/01/30 02:09:35;;;;;;;13.55;9.50;;;;;;;17.07;36.72;94601.56;4931177;28;20541;-93
2024/01/30 02:12:01;;;;;;;11.93;9.60;;;;;;;17.01;36.68;94614.38;4973343;28;20189;-94
2024/01/30 02:14:27;;;;;;;10.90;9.10;;;;;;;17.04;36.76;94602.50;4957867;28;20054;-93
2024/01/30 02:16:52;;;;;;;10.93;8.45;;;;;;;17.05;36.68;94606.00;4977701;28;20477;-94
2024/01/30 02:19:19;;;;;;;11.98;9.30;;;;;;;16.98;36.92;94598.16;4964393;28;20039;-95
2024/01/30 02:21:45;;;;;;;12.65;8.80;;;;;;;16.99;36.97;94602.41;4958794;28;20070;-93
2024/01/30 02:24:10;;;;;;;12.27;8.35;;;;;;;17.01;36.72;94605.41;4956405;28;20439;-94
2024/01/30 02:26:36;;;;;;;12.93;8.65;;;;;;;17.02;36.83;94602.22;4973062;28;20054;-93
2024/01/30 02:29:01;;;;;;;11.77;8.85;;;;;;;16.99;37.09;94596.94;4973290;28;20050;-92
2024/01/30 02:31:27;;;;;;;13.38;9.07;;;;;;;17.01;36.85;94608.91;4960624;28;20038;-95
2024/01/30 02:33:52;;;;;;;11.38;8.27;;;;;;;17.00;37.07;94606.66;4954155;28;20043;-94
2024/01/30 02:36:19;;;;;;;12.00;8.65;;;;;;;17.02;36.76;94604.94;4955421;28;20090;-93
2024/01/30 02:38:46;;;;;;;12.32;8.85;;;;;;;16.98;37.00;94609.84;4952103;28;20533;-93
2024/01/30 02:41:11;;;;;;;9.65;8.15;;;;;;;17.04;36.75;94602.50;4958690;28;20716;-94
2024/01/30 02:43:38;;;;;;;11.88;8.07;;;;;;;17.00;36.69;94607.41;4961010;28;20772;-94
2024/01/30 02:46:03;;;;;;;12.57;8.70;;;;;;;16.99;36.72;94594.97;4975940;28;20042;-93
2024/01/30 02:48:29;;;;;;;13.13;9.20;;;;;;;17.01;36.81;94600.72;4987364;28;20049;-94
2024/01/30 02:50:54;;;;;;;11.93;8.63;;;;;;;17.05;36.71;94601.28;4940863;28;20209;-94
2024/01/30 02:53:20;;;;;;;9.93;7.82;;;;;;;17.03;36.54;94598.25;4940978;28;20058;-94
2024/01/30 02:55:45;;;;;;;12.57;8.63;;;;;;;17.01;36.54;94592.50;4952546;28;20055;-94
2024/01/30 02:58:11;;;;;;;10.02;8.20;;;;;;;17.01;37.14;94589.78;4956550;28;20045;-95
2024/01/30 03:00:37;;;;;;;12.90;8.48;;;;;;;17.05;36.79;94598.53;4990289;28;20134;-94
2024/01/30 03:03:03;;;;;;;10.50;8.05;;;;;;;17.04;36.76;94593.56;4950630;28;20042;-92
2024/01/30 03:05:29;;;;;;;11.32;7.68;;;;;;;17.03;36.79;94595.53;4974890;28;20093;-95
2024/01/30 03:07:56;;;;;;;10.75;8.52;;;;;;;17.00;36.79;94591.00;4960755;28;20124;-93
2024/01/30 03:10:22;;;;;;;10.60;7.43;;;;;;;17.02;36.88;94593.28;4956944;28;20054;-91
2024/01/30 03:12:48;;;;;;;10.93;7.43;;;;;;;17.00;36.86;94595.72;4945095;28;20061;-94
2024/01/30 03:15:14;;;;;;;10.65;7.65;;;;;;;17.07;36.43;94590.63;4953610;28;20046;-93
2024/01/30 03:17:40;;;;;;;11.93;7.38;;;;;;;17.06;36.40;94589.13;4969182;28;20573;-95
2024/01/30 03:20:06;;;;;;;10.45;7.28;;;;;;;17.05;36.91;94586.88;4942989;28;20043;-94
2024/01/30 03:22:32;;;;;;;12.38;8.65;;;;;;;17.05;36.75;94597.78;4940018;28;20047;-93
2024/01/30 03:24:57;;;;;;;10.48;8.05;;;;;;;17.09;36.66;94595.63;4969386;28;20045;-93
2024/01/30 03:27:24;;;;;;;11.38;8.27;;;;;;;17.05;37.01;94592.31;4958366;28;20050;-94
2024/01/30 03:29:49;;;;;;;12.20;8.52;;;;;;;17.08;36.80;94596.84;4974317;28;20095;-93
2024/01/30 03:32:15;;;;;;;10.75;8.02;;;;;;;17.15;36.81;94590.97;4958153;28;20042;-91
2024/01/30 03:34:41;;;;;;;11.20;7.60;;;;;;;17.10;36.62;94597.84;4956195;28;20038;-89
2024/01/30 03:37:06;;;;;;;13.40;8.55;;;;;;;17.09;36.89;94598.34;4957787;28;20026;-93
2024/01/30 03:39:32;;;;;;;10.07;7.68;;;;;;;17.13;36.38;94596.16;4955867;28;20051;-92
2024/01/30 03:41:57;;;;;;;10.75;8.10;;;;;;;17.01;36.59;94600.72;4956075;28;20041;-92
2024/01/30 03:44:23;;;;;;;11.20;7.88;;;;;;;17.05;36.64;94598.53;4966739;28;20035;-93
2024/01/30 03:46:48;;;;;;;10.15;6.90;;;;;;;16.98;37.02;94593.47;4955640;28;20039;-92
2024/01/30 03:49:14;;;;;;;10.30;7.72;;;;;;;17.02;36.85;94594.03;4941217;28;20035;-90
2024/01/30 03:51:40;;;;;;;12.02;7.38;;;;;;;17.04;36.71;94601.75;4948171;28;20062;-95
2024/01/30 03:54:07;;;;;;;9.88;7.53;;;;;;;17.08;36.50;94597.59;4935315;28;20044;-93
2024/01/30 03:56:32;;;;;;;11.32;7.47;;;;;;;17.04;36.66;94602.50;4936054;29;20102;-93
2024/01/30 03:59:00;;;;;;;10.98;7.57;;;;;;;17.01;36.44;94603.44;4926256;28;20043;-94
2024/01/30 04:01:26;;;;;;;11.38;7.78;;;;;;;16.98;36.31;94601.66;4937205;28;20047;-92
2024/01/30 04:03:51;;;;;;;10.52;7.10;;;;;;;16.95;37.06;94594.41;4948430;28;20114;-95
2024/01/30 04:06:20;;;;;;;10.00;6.78;;;;;;;16.99;36.43;94605.13;4925673;28;20040;-92
2024/01/30 04:08:46;;;;;;;8.98;7.53;;;;;;;16.98;36.72;94600.91;4938620;28;20071;-92
2024/01/30 04:11:12;;;;;;;8.40;6.45;;;;;;;17.03;36.40;94601.00;4921159;28;20090;-94
2024/01/30 04:13:38;;;;;;;11.25;6.50;;;;;;;17.03;36.58;94602.97;4936658;28;20437;-94
2024/01/30 04:16:06;;;;;;;10.27;7.28;;;;;;;17.02;36.60;94601.47;4937150;28;20050;-95
2024/01/30 04:18:33;;;;;;;9.00;6.50;;;;;;;16.98;36.62;94600.91;4936591;28;20057;-93
2024/01/30 04:21:01;;;;;;;9.25;6.57;;;;;;;16.98;37.30;94609.09;4936741;28;20090;-94
2024/01/30 04:23:26;;;;;;;9.75;7.50;;;;;;;16.97;37.04;94597.41;4953884;28;20038;-95
2024/01/30 04:25:53;;;;;;;9.82;7.03;;;;;;;16.95;36.66;94602.59;4957993;28;20053;-94
2024/01/30 04:28:19;;;;;;;9.88;6.70;;;;;;;17.00;36.64;94607.41;4958772;28;20037;-95
2024/01/30 04:30:44;;;;;;;11.18;7.53;;;;;;;16.96;37.01;94606.84;4969914;28;20042;-92
2024/01/30 04:33:10;;;;;;;25.13;17.73;;;;;;;17.04;37.05;94609.94;4966117;28;20046;-91
2024/01/30 04:35:36;;;;;;;13.77;8.93;;;;;;;17.05;37.25;94612.22;4979399;28;20039;-90
2024/01/30 04:38:02;;;;;;;14.70;9.60;;;;;;;17.12;36.50;94609.06;4941493;28;20046;-95
2024/01/30 04:40:30;;;;;;;14.85;11.05;;;;;;;17.08;36.91;94608.53;4966670;28;20419;-95
2024/01/30 04:42:58;;;;;;;79.88;53.90;;;;;;;17.18;36.94;94616.59;4976126;28;20042;-90
2024/01/30 04:45:27;;;;;;;16.10;9.98;;;;;;;17.11;36.67;94615.75;4950735;28;20039;-88
2024/01/30 04:47:53;;;;;;;21.23;14.95;;;;;;;17.12;36.85;94605.59;4977862;28;20038;-91
2024/01/30 04:50:19;;;;;;;23.88;13.27;;;;;;;17.17;36.78;94615.09;4966252;28;20038;-91
2024/01/30 04:52:45;;;;;;;17.48;13.32;;;;;;;17.08;37.48;94610.50;4968435;28;20038;-90
2024/01/30 04:55:14;;;;;;;20.98;14.68;;;;;;;17.06;37.11;94615.69;4968772;28;20043;-90
2024/01/30 04:57:42;;;;;;;21.17;13.15;;;;;;;17.07;36.64;94612.50;4985664;28;20038;-94
2024/01/30 05:00:08;;;;;;;17.75;12.25;;;;;;;16.96;34.54;94608.81;4979280;28;20120;-89
2024/01/30 05:02:33;;;;;;;24.20;15.18;;;;;;;17.01;35.58;94606.19;4978017;28;20050;-91
2024/01/30 05:05:10;;;;;;;25.45;16.17;;;;;;;17.07;35.98;94609.75;4971716;28;20034;-93
2024/01/30 05:07:36;;;;;;;45.13;18.65;;;;;;;16.99;36.09;94616.81;4988002;28;20428;-91
2024/01/30 05:10:04;;;;;;;34.45;16.63;;;;;;;16.94;36.19;94611.25;4946252;28;20038;-94
2024/01/30 05:12:32;;;;;;;29.58;15.52;;;;;;;17.06;36.67;94608.25;4963772;28;20592;-93
2024/01/30 05:15:01;;;;;;;34.42;15.30;;;;;;;17.06;36.14;94619.19;4985623;28;20044;-93
2024/01/30 05:17:26;;;;;;;27.42;14.40;;;;;;;17.09;36.45;94614.75;4952810;28;20078;-91
2024/01/30 05:19:52;;;;;;;34.63;16.50;;;;;;;17.04;36.07;94618.13;4922659;28;20051;-92
2024/01/30 05:22:18;;;;;;;36.92;18.15;;;;;;;17.11;36.58;94618.50;4937260;28;20054;-92
2024/01/30 05:24:46;;;;;;;45.40;19.25;;;;;;;17.06;36.40;94621.91;4961156;28;20043;-93
2024/01/30 05:27:13;;;;;;;41.45;19.08;;;;;;;17.01;36.56;94622.56;4934732;28;20078;-93
2024/01/30 05:29:39;;;;;;;38.47;20.55;;;;;;;17.01;36.36;94616.34;4934579;28;20043;-94
2024/01/30 05:32:05;;;;;;;40.40;18.63;;;;;;;16.86;32.99;94616.38;4909937;29;20054;-93
2024/01/30 05:34:33;;;;;;;86.55;57.92;;;;;;;16.66;33.23;94616.28;4942448;28;20051;-92
2024/01/30 05:36:59;;;;;;;112.43;77.38;;;;;;;16.79;33.16;94622.94;4951606;28;20043;-92
2024/01/30 05:39:27;;;;;;;68.85;38.15;;;;;;;16.82;34.03;94626.72;4915905;29;20196;-93
2024/01/30 05:41:52;;;;;;;56.92;34.40;;;;;;;16.90;34.52;94625.09;4941961;28;20055;-90
2024/01/30 05:44:18;;;;;;;72.93;41.20;;;;;;;16.85;35.96;94628.50;4939651;28;20039;-94
2024/01/30 05:46:44;;;;;;;60.90;31.20;;;;;;;16.87;35.95;94628.03;4912658;29;20047;-92
2024/01/30 05:49:12;;;;;;;49.40;26.90;;;;;;;16.87;35.65;94623.34;4935374;29;20046;-92
2024/01/30 05:51:39;;;;;;;51.45;27.02;;;;;;;16.95;35.83;94627.19;4914733;29;20084;-93
2024/01/30 05:54:04;;;;;;;54.05;24.52;;;;;;;16.98;35.58;94636.41;4912590;29;20135;-92
2024/01/30 05:56:32;;;;;;;45.42;24.95;;;;;;;17.04;35.57;94629.81;4865402;29;20067;-95
2024/01/30 05:58:58;;;;;;;46.72;26.80;;;;;;;16.93;35.86;94632.34;4918320;28;20122;-93
2024/01/30 06:01:26;;;;;;;49.20;24.77;;;;;;;17.00;35.75;94639.44;4935103;28;20509;-91
2024/01/30 06:03:52;;;;;;;44.72;25.02;;;;;;;16.96;35.87;94634.16;4922099;29;20502;-93
2024/01/30 06:06:17;;;;;;;39.42;23.23;;;;;;;16.97;35.67;94641.13;4951171;28;20585;-95
2024/01/30 06:08:42;;;;;;;44.25;24.05;;;;;;;16.92;36.01;94639.03;4957809;28;20046;-90
2024/01/30 06:11:10;;;;;;;44.00;24.77;;;;;;;17.02;35.97;94636.97;4921252;28;20106;-92
2024/01/30 06:13:46;;;;;;;58.80;33.25;;;;;;;17.07;36.06;94636.31;4911234;29;20070;-90
2024/01/30 06:16:19;;;;;;;98.53;53.38;;;;;;;16.99;35.14;94643.38;4927002;28;20050;-91
2024/01/30 06:18:46;;;;;;;129.77;59.83;;;;;;;16.94;35.53;94642.06;4915802;29;20052;-94
2024/01/30 06:21:24;;;;;;;107.60;52.90;;;;;;;17.00;35.89;94639.44;4930134;29;20039;-89
2024/01/30 06:24:04;;;;;;;135.32;71.47;;;;;;;17.01;36.04;94638.97;4940330;29;20054;-91
2024/01/30 06:26:38;;;;;;;158.20;82.97;;;;;;;17.00;36.05;94642.16;4906012;29;20048;-91
2024/01/30 06:29:04;;;;;;;155.57;85.93;;;;;;;17.03;35.94;94644.69;4891466;29;20381;-93
2024/01/30 06:31:29;;;;;;;172.02;92.25;;;;;;;17.00;35.94;94645.66;4911460;29;20151;-93
2024/01/30 06:33:56;;;;;;;177.63;98.53;;;;;;;17.08;36.21;94646.03;4895507;29;20036;-91
2024/01/30 06:36:22;;;;;;;167.70;96.25;;;;;;;17.04;35.95;94642.72;4908627;29;20066;-90
2024/01/30 06:38:47;;;;;;;196.65;106.68;;;;;;;17.01;36.21;94647.16;4945071;29;20556;-91
2024/01/30 06:41:13;;;;;;;194.80;105.35;;;;;;;17.08;35.88;94646.03;4922447;29;20047;-94
2024/01/30 06:43:39;;;;;;;243.80;131.63;;;;;;;17.05;36.06;94653.19;4912491;29;20076;-93
2024/01/30 06:46:04;;;;;;;218.52;122.60;;;;;;;17.12;36.02;94647.31;4908105;29;20059;-93
2024/01/30 06:48:30;;;;;;;215.80;121.60;;;;;;;17.06;36.12;94653.94;4919864;29;20382;-94
2024/01/30 06:50:57;;;;;;;241.07;129.15;;;;;;;17.05;36.15;94645.00;4891505;29;20044;-89
2024/01/30 06:53:23;;;;;;;225.07;126.97;;;;;;;17.06;35.85;94645.75;4881787;29;20068;-89
2024/01/30 06:55:48;;;;;;;250.30;143.70;;;;;;;17.06;35.99;94648.47;4882657;29;20084;-90
2024/01/30 06:58:15;;;;;;;244.48;138.85;;;;;;;17.10;36.08;94646.31;4863508;29;20036;-86
2024/01/30 07:00:40;;;;;;;244.55;133.02;;;;;;;17.16;35.95;94647.13;4895977;29;20060;-89
2024/01/30 07:03:06;;;;;;;235.73;129.35;;;;;;;17.09;36.38;94656.47;4881423;29;20052;-89
2024/01/30 07:05:32;;;;;;;219.73;119.82;;;;;;;17.12;36.18;94652.78;4903955;29;20091;-93
2024/01/30 07:07:58;;;;;;;217.57;117.90;;;;;;;17.22;35.99;94647.97;4890954;29;20036;-91
2024/01/30 07:10:23;;;;;;;213.38;119.53;;;;;;;17.22;35.76;94658.91;4887152;29;20068;-86
2024/01/30 07:12:49;;;;;;;209.35;115.25;;;;;;;17.15;36.13;94648.34;4907876;29;20043;-95
2024/01/30 07:15:17;;;;;;;200.45;114.93;;;;;;;17.12;36.18;94646.56;4896200;29;20191;-91
2024/01/30 07:17:42;;;;;;;195.43;109.32;;;;;;;17.22;35.99;94647.97;4909834;29;20796;-95
2024/01/30 07:20:09;;;;;;;192.25;112.75;;;;;;;17.25;36.18;94654.50;4954835;28;20134;-88
2024/01/30 07:22:34;;;;;;;179.25;104.57;;;;;;;17.18;36.07;94655.63;4954551;28;20098;-94
2024/01/30 07:25:00;;;;;;;175.88;102.70;;;;;;;17.23;35.85;94651.47;4953028;28;20055;-93
2024/01/30 07:27:25;;;;;;;197.65;106.35;;;;;;;17.16;36.11;94655.31;4951397;28;20035;-95
2024/01/30 07:29:51;;;;;;;172.25;101.57;;;;;;;17.20;36.15;94655.91;4976341;28;20082;-93
2024/01/30 07:32:16;;;;;;;153.13;90.38;;;;;;;17.24;36.25;94656.47;4933719;28;20046;-94
2024/01/30 07:34:54;;;;;;;158.55;94.00;;;;;;;17.21;36.25;94662.13;4932459;28;20046;-86
2024/01/30 07:37:28;;;;;;;156.52;89.18;;;;;;;17.21;36.29;94664.84;5093249;23;20054;-87
2024/01/30 07:39:54;;;;;;;153.05;91.07;;;;;;;17.19;36.35;94664.56;5012848;28;20069;-86
2024/01/30 07:42:19;;;;;;;165.00;91.57;;;;;;;17.26;36.29;94664.19;4983890;28;20454;-88
2024/01/30 07:44:45;;;;;;;162.18;92.38;;;;;;;17.25;36.37;94671.63;5002346;28;21075;-88
2024/01/30 07:47:11;;;;;;;177.68;93.47;;;;;;;17.28;35.93;94664.47;5000611;28;20065;-90
2024/01/30 07:49:38;;;;;;;198.70;108.25;;;;;;;17.32;36.09;94670.50;5016260;28;20042;-91
2024/01/30 07:52:04;;;;;;;200.95;108.72;;;;;;;17.35;36.06;94670.28;4998763;28;20041;-90
2024/01/30 07:54:38;;;;;;;221.48;111.95;;;;;;;17.36;36.08;94671.78;5025205;28;20041;-90
2024/01/30 07:57:04;;;;;;;280.63;189.80;;;;;;;17.35;36.16;94675.75;4985971;28;20536;-90
2024/01/30 07:59:29;;;;;;;200.77;110.13;;;;;;;17.37;36.07;94678.03;4989428;28;20058;-89
2024/01/30 08:01:55;;;;;;;204.57;113.22;;;;;;;17.34;36.16;94678.97;4997263;28;20029;-86
2024/01/30 08:04:21;;;;;;;195.00;110.90;;;;;;;17.41;36.09;94673.13;4994230;28;20049;-89
2024/01/30 08:06:46;;;;;;;187.68;104.63;;;;;;;17.34;36.12;94674.25;4998229;28;20033;-87
2024/01/30 08:09:12;;;;;;;189.23;102.65;;;;;;;17.33;36.35;94683.66;5008887;28;20033;-88
2024/01/30 08:11:37;;;;;;;170.15;94.10;;;;;;;17.36;36.24;94679.25;4997107;28;20099;-90
2024/01/30 08:14:03;;;;;;;180.32;91.95;;;;;;;17.43;35.52;94681.59;5009303;28;20045;-89
2024/01/30 08:16:28;;;;;;;171.45;81.50;;;;;;;17.33;35.62;94682.91;5001454;28;20040;-89
2024/01/30 08:18:57;;;;;;;130.30;63.08;;;;;;;17.28;34.17;94687.09;4980768;28;20867;-91
2024/01/30 08:21:22;;;;;;;109.72;56.63;;;;;;;17.28;34.13;94689.06;4985280;28;20045;-89
2024/01/30 08:23:48;;;;;;;125.35;68.45;;;;;;;17.33;34.98;94688.38;4993914;28;20040;-88
2024/01/30 08:26:13;;;;;;;147.52;69.40;;;;;;;17.27;34.43;94684.81;5014841;28;20136;-89
2024/01/30 08:28:39;;;;;;;126.82;60.03;;;;;;;17.31;34.14;94680.69;4996814;28;20041;-87
2024/01/30 08:31:04;;;;;;;146.98;76.72;;;;;;;17.29;34.67;94685.88;5022452;28;20066;-88
2024/01/30 08:33:30;;;;;;;186.75;95.57;;;;;;;17.36;35.34;94687.44;4999120;28;20763;-89
2024/01/30 08:35:55;;;;;;;183.07;91.13;;;;;;;17.39;35.33;94678.31;5011772;28;20033;-88
2024/01/30 08:38:21;;;;;;;179.20;97.53;;;;;;;17.45;34.91;94687.34;5010270;28;20048;-88
2024/01/30 08:40:46;;;;;;;168.30;92.80;;;;;;;17.46;35.16;94686.13;4997607;28;20037;-88
2024/01/30 08:43:12;;;;;;;204.88;115.32;;;;;;;17.39;35.39;94676.31;4979656;28;20033;-87
2024/01/30 08:45:38;;;;;;;212.85;119.57;;;;;;;17.43;35.16;94682.34;4982701;28;20033;-88
2024/01/30 08:48:03;;;;;;;207.93;118.20;;;;;;;17.40;35.33;94680.56;4989195;28;20042;-88
2024/01/30 08:50:29;;;;;;;193.38;109.00;;;;;;;17.46;35.08;94686.88;4985213;28;20196;-88
2024/01/30 08:52:55;;;;;;;189.10;102.10;;;;;;;17.42;35.29;94680.84;5024857;28;20056;-88
2024/01/30 08:55:20;;;;;;;185.18;102.10;;;;;;;17.45;35.28;94684.63;4994330;28;20033;-88
2024/01/30 08:57:46;;;;;;;175.38;100.07;;;;;;;17.48;35.57;94681.69;4997446;28;20052;-89
2024/01/30 09:00:12;;;;;;;177.73;96.47;;;;;;;17.47;35.60;94685.66;5006543;28;20044;-87
2024/01/30 09:02:37;;;;;;;172.20;97.10;;;;;;;17.50;35.76;94686.69;5002086;28;20037;-87
2024/01/30 09:05:03;;;;;;;167.43;92.10;;;;;;;17.47;36.33;94687.63;5001484;28;20243;-89
2024/01/30 09:07:28;;;;;;;153.75;84.97;;;;;;;17.52;36.18;94694.41;5000490;28;20041;-89
2024/01/30 09:09:55;;;;;;;159.48;88.47;;;;;;;17.57;35.91;94699.19;5000547;28;20095;-87
2024/01/30 09:12:20;;;;;;;160.75;88.47;;;;;;;17.58;35.95;94696.00;5019836;28;20048;-90
2024/01/30 09:14:46;;;;;;;189.27;100.60;;;;;;;17.54;35.84;94700.91;5012591;28;20402;-90
2024/01/30 09:17:14;;;;;;;189.50;101.97;;;;;;;17.58;36.08;94698.72;5000774;28;20041;-89
2024/01/30 09:19:42;;;;;;;171.40;90.35;;;;;;;17.52;36.18;94699.88;4994486;28;20128;-91
2024/01/30 09:22:08;;;;;;;176.40;101.97;;;;;;;17.53;35.87;94687.72;5024181;28;20072;-91
2024/01/30 09:24:33;;;;;;;168.18;91.72;;;;;;;17.57;36.43;94693.72;4994532;28;20041;-87
2024/01/30 09:26:59;;;;;;;160.60;95.57;;;;;;;17.63;36.32;94697.31;5014645;28;20486;-90
2024/01/30 09:29:24;;;;;;;164.05;92.97;;;;;;;17.66;36.13;94693.66;5005173;28;20033;-89
2024/01/30 09:31:50;;;;;;;165.18;94.55;;;;;;;17.60;36.09;94693.53;4982374;28;20081;-90
2024/01/30 09:34:16;;;;;;;171.57;93.05;;;;;;;17.59;35.96;94691.28;5004106;28;20044;-90
2024/01/30 09:36:41;;;;;;;174.02;92.40;;;;;;;17.60;36.11;94698.25;5003327;28;20048;-89
2024/01/30 09:39:07;;;;;;;163.68;91.07;;;;;;;17.59;36.07;94688.53;4992826;28;20049;-90
2024/01/30 09:41:36;;;;;;;185.23;88.80;;;;;;;17.61;36.07;94688.81;4999058;28;20063;-89
2024/01/30 09:44:02;;;;;;;179.43;96.00;;;;;;;17.64;36.27;94683.19;4986106;28;20354;-89
2024/01/30 09:46:28;;;;;;;163.80;87.95;;;;;;;17.69;36.29;94687.25;4980868;28;20419;-88
2024/01/30 09:48:53;;;;;;;158.20;83.00;;;;;;;17.70;36.60;94689.50;4986487;28;20059;-89
2024/01/30 09:51:19;;;;;;;169.68;89.25;;;;;;;17.61;36.36;94686.84;4991329;28;20121;-90
2024/01/30 09:53:46;;;;;;;176.18;84.90;;;;;;;17.62;35.95;94688.34;5001841;28;20041;-90
2024/01/30 09:56:12;;;;;;;151.80;80.00;;;;;;;17.69;35.72;94687.25;5012957;28;20041;-89
2024/01/30 09:58:39;;;;;;;164.57;84.13;;;;;;;17.57;36.27;94688.25;4997399;28;20087;-90
2024/01/30 10:01:05;;;;;;;198.10;107.80;;;;;;;17.61;36.42;94684.13;5003580;28;20048;-90
2024/01/30 10:03:31;;;;;;;180.20;100.30;;;;;;;17.63;36.27;94687.13;5026627;28;20056;-89
2024/01/30 10:05:57;;;;;;;193.40;102.22;;;;;;;17.60;36.43;94690.06;5012316;28;20092;-89
2024/01/30 10:08:23;;;;;;;180.23;93.15;;;;;;;17.68;36.31;94691.97;4982179;28;20038;-89
2024/01/30 10:10:49;;;;;;;168.05;90.10;;;;;;;17.66;36.75;94685.47;4976563;28;20502;-88
2024/01/30 10:13:15;;;;;;;163.25;90.85;;;;;;;17.65;36.33;94695.63;4995615;28;20056;-88
2024/01/30 10:15:41;;;;;;;164.50;88.68;;;;;;;17.66;36.38;94697.16;4998560;28;20040;-90
2024/01/30 10:18:06;;;;;;;157.27;89.15;;;;;;;17.69;36.78;94698.94;4999369;28;20037;-86
2024/01/30 10:20:32;;;;;;;160.50;86.68;;;;;;;17.70;36.34;94692.25;4999772;28;20052;-90
2024/01/30 10:22:58;;;;;;;171.52;92.70;;;;;;;17.59;36.40;94686.56;5009008;28;20038;-88
2024/01/30 10:25:26;;;;;;;170.23;99.28;;;;;;;17.66;36.00;94686.22;5019599;28;20128;-90
2024/01/30 10:27:55;;;;;;;177.38;102.07;;;;;;;17.60;35.49;94681.84;5011943;28;20060;-92
2024/01/30 10:30:24;;;;;;;222.48;116.78;;;;;;;17.70;35.08;94681.31;4998101;28;20478;-90
2024/01/30 10:32:50;;;;;;;211.05;114.30;;;;;;;17.63;35.44;94673.47;5017342;28;20040;-91
2024/01/30 10:35:15;;;;;;;222.70;129.30;;;;;;;17.62;35.40;94677.41;5016438;28;20056;-90
2024/01/30 10:37:43;;;;;;;220.05;123.18;;;;;;;17.71;34.59;94671.88;4975785;28;20387;-91
2024/01/30 10:40:08;;;;;;;233.50;129.48;;;;;;;17.73;35.38;94669.41;4938436;28;20046;-90
2024/01/30 10:42:34;;;;;;;260.45;132.68;;;;;;;17.76;34.92;94668.44;4944380;28;20077;-90
2024/01/30 10:45:10;;;;;;;256.83;130.38;;;;;;;17.63;34.86;94672.69;4949135;28;20940;-89
2024/01/30 10:47:36;;;;;;;258.33;133.50;;;;;;;17.64;34.88;94669.53;4948074;28;20045;-91
2024/01/30 10:50:03;;;;;;;275.25;140.80;;;;;;;17.59;34.84;94661.19;4944294;28;20098;-90
2024/01/30 10:52:29;;;;;;;257.38;139.50;;;;;;;17.61;34.85;94658.75;4978735;28;20050;-89
2024/01/30 10:54:55;;;;;;;239.73;135.13;;;;;;;17.53;34.90;94655.66;4974191;28;20339;-89
2024/01/30 10:57:22;;;;;;;239.90;128.38;;;;;;;17.61;34.42;94645.84;4963979;28;20066;-89
2024/01/30 10:59:48;;;;;;;232.80;129.32;;;;;;;17.63;34.75;94656.28;4955642;28;20544;-88
2024/01/30 11:02:13;;;;;;;221.23;121.65;;;;;;;17.51;34.38;94652.66;4928355;28;20070;-89
2024/01/30 11:04:40;;;;;;;227.90;127.22;;;;;;;17.54;34.89;94646.22;4964362;28;20453;-92
2024/01/30 11:07:24;;;;;;;220.02;117.47;;;;;;;17.54;34.95;94651.69;4969123;28;20042;-92
2024/01/30 11:09:51;;;;;;;208.18;109.35;;;;;;;17.47;34.40;94643.91;4988829;28;20500;-92